sensor_id;sensor_type;location;lat;lon;timestamp;P1;durP1;ratioP1;P2;durP2;ratioP2
16994;SDS011;8614;48.522;9.206;2024-03-23T00:53:50;9.57;;;8.77;;
16994;SDS011;8614;48.522;9.206;2024-03-23T00:56:16;9.60;;;8.80;;
16994;SDS011;8614;48.522;9.206;2024-03-23T00:58:43;9.47;;;8.67;;
16994;SDS011;8614;48.522;9.206;2024-03-23T01:01:09;8.77;;;7.97;;
16994;SDS011;8614;48.522;9.206;2024-03-23T01:03:36;9.27;;;8.37;;
16994;SDS011;8614;48.522;9.206;2024-03-23T01:06:02;9.50;;;8.60;;
16994;SDS011;8614;48.522;9.206;2024-03-23T01:08:29;9.50;;;8.70;;
16994;SDS011;8614;48.522;9.206;2024-03-23T01:10:56;9.80;;;8.97;;
16994;SDS011;8614;48.522;9.206;2024-03-23T01:13:24;10.17;;;9.27;;
16994;SDS011;8614;48.522;9.206;2024-03-23T01:15:50;9.73;;;8.87;;
16994;SDS011;8614;48.522;9.206;2024-03-23T01:18:17;9.80;;;9.00;;
16994;SDS011;8614;48.522;9.206;2024-03-23T01:20:43;10.27;;;9.27;;
16994;SDS011;8614;48.522;9.206;2024-03-23T01:23:09;10.53;;;9.70;;
16994;SDS011;8614;48.522;9.206;2024-03-23T01:25:35;10.77;;;9.83;;
16994;SDS011;8614;48.522;9.206;2024-03-23T01:28:04;10.70;;;9.90;;
16994;SDS011;8614;48.522;9.206;2024-03-23T01:30:31;10.67;;;9.87;;
16994;SDS011;8614;48.522;9.206;2024-03-23T01:32:58;11.47;;;10.33;;
16994;SDS011;8614;48.522;9.206;2024-03-23T01:35:24;11.00;;;10.00;;
16994;SDS011;8614;48.522;9.206;2024-03-23T01:37:51;10.60;;;9.60;;
16994;SDS011;8614;48.522;9.206;2024-03-23T01:40:17;10.10;;;9.30;;
16994;SDS011;8614;48.522;9.206;2024-03-23T01:42:54;10.27;;;9.30;;
16994;SDS011;8614;48.522;9.206;2024-03-23T01:45:22;9.80;;;9.10;;
16994;SDS011;8614;48.522;9.206;2024-03-23T01:47:49;11.30;;;10.40;;
16994;SDS011;8614;48.522;9.206;2024-03-23T01:50:15;10.00;;;9.30;;
16994;SDS011;8614;48.522;9.206;2024-03-23T01:52:43;9.60;;;8.90;;
16994;SDS011;8614;48.522;9.206;2024-03-23T01:55:09;9.53;;;8.83;;
16994;SDS011;8614;48.522;9.206;2024-03-23T01:57:36;10.50;;;9.70;;
16994;SDS011;8614;48.522;9.206;2024-03-23T02:00:02;9.57;;;8.87;;
16994;SDS011;8614;48.522;9.206;2024-03-23T02:02:41;10.07;;;9.27;;
16994;SDS011;8614;48.522;9.206;2024-03-23T02:05:08;10.50;;;9.60;;
16994;SDS011;8614;48.522;9.206;2024-03-23T02:07:35;10.27;;;9.47;;
16994;SDS011;8614;48.522;9.206;2024-03-23T02:10:01;10.23;;;9.43;;
16994;SDS011;8614;48.522;9.206;2024-03-23T02:12:28;10.03;;;9.33;;
16994;SDS011;8614;48.522;9.206;2024-03-23T02:14:54;10.10;;;9.30;;
16994;SDS011;8614;48.522;9.206;2024-03-23T02:17:21;9.70;;;8.83;;
16994;SDS011;8614;48.522;9.206;2024-03-23T02:19:48;8.83;;;8.23;;
16994;SDS011;8614;48.522;9.206;2024-03-23T02:22:15;8.97;;;8.27;;
16994;SDS011;8614;48.522;9.206;2024-03-23T02:24:42;8.80;;;8.10;;
16994;SDS011;8614;48.522;9.206;2024-03-23T02:27:09;8.67;;;7.97;;
16994;SDS011;8614;48.522;9.206;2024-03-23T02:29:36;8.43;;;7.83;;
16994;SDS011;8614;48.522;9.206;2024-03-23T02:32:03;8.53;;;7.87;;
16994;SDS011;8614;48.522;9.206;2024-03-23T02:34:29;8.90;;;8.20;;
16994;SDS011;8614;48.522;9.206;2024-03-23T02:36:56;8.90;;;8.20;;
16994;SDS011;8614;48.522;9.206;2024-03-23T02:39:22;8.83;;;8.13;;
16994;SDS011;8614;48.522;9.206;2024-03-23T02:41:50;8.53;;;7.93;;
16994;SDS011;8614;48.522;9.206;2024-03-23T02:44:16;8.30;;;7.70;;
16994;SDS011;8614;48.522;9.206;2024-03-23T02:46:43;8.63;;;8.00;;
16994;SDS011;8614;48.522;9.206;2024-03-23T02:49:09;8.50;;;7.80;;
16994;SDS011;8614;48.522;9.206;2024-03-23T02:51:35;8.60;;;8.00;;
16994;SDS011;8614;48.522;9.206;2024-03-23T02:54:01;9.13;;;8.43;;
16994;SDS011;8614;48.522;9.206;2024-03-23T02:56:28;9.60;;;8.90;;
16994;SDS011;8614;48.522;9.206;2024-03-23T02:58:55;8.40;;;7.80;;
16994;SDS011;8614;48.522;9.206;2024-03-23T03:01:22;8.40;;;7.73;;
16994;SDS011;8614;48.522;9.206;2024-03-23T03:03:48;8.33;;;7.73;;
16994;SDS011;8614;48.522;9.206;2024-03-23T03:06:22;8.50;;;7.90;;
16994;SDS011;8614;48.522;9.206;2024-03-23T03:08:48;8.70;;;8.10;;
16994;SDS011;8614;48.522;9.206;2024-03-23T03:11:15;8.23;;;7.73;;
16994;SDS011;8614;48.522;9.206;2024-03-23T03:13:41;9.03;;;8.43;;
16994;SDS011;8614;48.522;9.206;2024-03-23T03:16:09;8.40;;;7.80;;
16994;SDS011;8614;48.522;9.206;2024-03-23T03:18:35;8.57;;;7.97;;
16994;SDS011;8614;48.522;9.206;2024-03-23T03:21:02;8.60;;;8.00;;
16994;SDS011;8614;48.522;9.206;2024-03-23T03:23:30;8.23;;;7.73;;
16994;SDS011;8614;48.522;9.206;2024-03-23T03:25:57;8.33;;;7.73;;
16994;SDS011;8614;48.522;9.206;2024-03-23T03:28:23;8.03;;;7.50;;
16994;SDS011;8614;48.522;9.206;2024-03-23T03:30:51;3.20;;;2.97;;
16994;SDS011;8614;48.522;9.206;2024-03-23T03:33:18;3.57;;;3.27;;
16994;SDS011;8614;48.522;9.206;2024-03-23T03:35:45;3.43;;;2.93;;
16994;SDS011;8614;48.522;9.206;2024-03-23T03:38:12;3.80;;;3.50;;
16994;SDS011;8614;48.522;9.206;2024-03-23T03:40:38;4.50;;;4.20;;
16994;SDS011;8614;48.522;9.206;2024-03-23T03:43:04;3.70;;;3.30;;
16994;SDS011;8614;48.522;9.206;2024-03-23T03:45:31;4.10;;;2.90;;
16994;SDS011;8614;48.522;9.206;2024-03-23T03:47:57;4.80;;;4.50;;
16994;SDS011;8614;48.522;9.206;2024-03-23T03:50:25;4.67;;;4.27;;
16994;SDS011;8614;48.522;9.206;2024-03-23T03:52:51;4.87;;;4.47;;
16994;SDS011;8614;48.522;9.206;2024-03-23T03:55:18;4.63;;;4.23;;
16994;SDS011;8614;48.522;9.206;2024-03-23T03:57:44;4.70;;;4.30;;
16994;SDS011;8614;48.522;9.206;2024-03-23T04:00:11;2.67;;;2.50;;
16994;SDS011;8614;48.522;9.206;2024-03-23T04:02:37;3.53;;;3.23;;
16994;SDS011;8614;48.522;9.206;2024-03-23T04:05:04;3.17;;;2.83;;
16994;SDS011;8614;48.522;9.206;2024-03-23T04:07:32;3.17;;;2.97;;
16994;SDS011;8614;48.522;9.206;2024-03-23T04:09:59;3.00;;;2.80;;
16994;SDS011;8614;48.522;9.206;2024-03-23T04:12:25;3.40;;;2.97;;
16994;SDS011;8614;48.522;9.206;2024-03-23T04:14:52;4.73;;;3.27;;
16994;SDS011;8614;48.522;9.206;2024-03-23T04:17:17;6.23;;;5.80;;
16994;SDS011;8614;48.522;9.206;2024-03-23T04:19:45;5.40;;;5.00;;
16994;SDS011;8614;48.522;9.206;2024-03-23T04:22:12;6.17;;;5.73;;
16994;SDS011;8614;48.522;9.206;2024-03-23T04:24:40;5.77;;;5.30;;
16994;SDS011;8614;48.522;9.206;2024-03-23T04:27:06;6.40;;;5.90;;
16994;SDS011;8614;48.522;9.206;2024-03-23T04:29:33;7.13;;;6.53;;
16994;SDS011;8614;48.522;9.206;2024-03-23T04:31:58;9.47;;;8.77;;
16994;SDS011;8614;48.522;9.206;2024-03-23T04:34:26;5.20;;;4.70;;
16994;SDS011;8614;48.522;9.206;2024-03-23T04:36:52;6.17;;;5.77;;
16994;SDS011;8614;48.522;9.206;2024-03-23T04:39:19;3.10;;;2.80;;
16994;SDS011;8614;48.522;9.206;2024-03-23T04:41:47;4.60;;;3.00;;
16994;SDS011;8614;48.522;9.206;2024-03-23T04:44:14;4.13;;;3.10;;
16994;SDS011;8614;48.522;9.206;2024-03-23T04:46:40;7.03;;;6.53;;
16994;SDS011;8614;48.522;9.206;2024-03-23T04:49:07;8.33;;;7.73;;
16994;SDS011;8614;48.522;9.206;2024-03-23T04:51:35;8.03;;;7.40;;
16994;SDS011;8614;48.522;9.206;2024-03-23T04:54:02;8.23;;;7.73;;
16994;SDS011;8614;48.522;9.206;2024-03-23T04:56:30;4.43;;;4.03;;
16994;SDS011;8614;48.522;9.206;2024-03-23T04:58:59;3.97;;;3.67;;
16994;SDS011;8614;48.522;9.206;2024-03-23T05:01:26;3.13;;;2.93;;
16994;SDS011;8614;48.522;9.206;2024-03-23T05:03:53;3.90;;;3.60;;
16994;SDS011;8614;48.522;9.206;2024-03-23T05:06:19;3.23;;;2.93;;
16994;SDS011;8614;48.522;9.206;2024-03-23T05:08:46;3.10;;;2.80;;
16994;SDS011;8614;48.522;9.206;2024-03-23T05:11:12;3.20;;;2.97;;
16994;SDS011;8614;48.522;9.206;2024-03-23T05:13:38;3.60;;;3.30;;
16994;SDS011;8614;48.522;9.206;2024-03-23T05:16:06;8.63;;;8.03;;
16994;SDS011;8614;48.522;9.206;2024-03-23T05:18:33;8.23;;;7.73;;
16994;SDS011;8614;48.522;9.206;2024-03-23T05:20:59;7.87;;;7.37;;
16994;SDS011;8614;48.522;9.206;2024-03-23T05:23:26;9.47;;;8.77;;
16994;SDS011;8614;48.522;9.206;2024-03-23T05:25:53;8.13;;;7.53;;
16994;SDS011;8614;48.522;9.206;2024-03-23T05:28:20;8.90;;;8.20;;
16994;SDS011;8614;48.522;9.206;2024-03-23T05:30:49;8.50;;;7.90;;
16994;SDS011;8614;48.522;9.206;2024-03-23T05:33:18;8.77;;;8.07;;
16994;SDS011;8614;48.522;9.206;2024-03-23T05:35:44;9.10;;;8.40;;
16994;SDS011;8614;48.522;9.206;2024-03-23T05:38:12;9.70;;;8.77;;
16994;SDS011;8614;48.522;9.206;2024-03-23T05:40:39;9.93;;;8.93;;
16994;SDS011;8614;48.522;9.206;2024-03-23T05:43:18;9.97;;;9.07;;
16994;SDS011;8614;48.522;9.206;2024-03-23T05:45:44;10.90;;;10.10;;
16994;SDS011;8614;48.522;9.206;2024-03-23T05:48:11;10.40;;;9.60;;
16994;SDS011;8614;48.522;9.206;2024-03-23T05:50:38;11.67;;;10.67;;
16994;SDS011;8614;48.522;9.206;2024-03-23T05:53:05;11.80;;;10.90;;
16994;SDS011;8614;48.522;9.206;2024-03-23T05:55:31;12.60;;;11.30;;
16994;SDS011;8614;48.522;9.206;2024-03-23T05:57:57;11.53;;;10.53;;
16994;SDS011;8614;48.522;9.206;2024-03-23T06:00:25;11.80;;;10.90;;
16994;SDS011;8614;48.522;9.206;2024-03-23T06:02:51;12.67;;;11.47;;
16994;SDS011;8614;48.522;9.206;2024-03-23T06:05:18;11.40;;;10.50;;
16994;SDS011;8614;48.522;9.206;2024-03-23T06:07:45;11.20;;;10.30;;
16994;SDS011;8614;48.522;9.206;2024-03-23T06:10:12;12.37;;;11.47;;
16994;SDS011;8614;48.522;9.206;2024-03-23T06:12:38;10.90;;;9.90;;
16994;SDS011;8614;48.522;9.206;2024-03-23T06:15:05;11.00;;;10.20;;
16994;SDS011;8614;48.522;9.206;2024-03-23T06:17:35;11.13;;;10.33;;
16994;SDS011;8614;48.522;9.206;2024-03-23T06:20:02;10.97;;;10.07;;
16994;SDS011;8614;48.522;9.206;2024-03-23T06:22:29;11.30;;;10.30;;
16994;SDS011;8614;48.522;9.206;2024-03-23T06:24:57;10.60;;;9.80;;
16994;SDS011;8614;48.522;9.206;2024-03-23T06:27:23;10.97;;;10.10;;
16994;SDS011;8614;48.522;9.206;2024-03-23T06:29:50;11.03;;;10.23;;
16994;SDS011;8614;48.522;9.206;2024-03-23T06:32:16;10.73;;;9.73;;
16994;SDS011;8614;48.522;9.206;2024-03-23T06:34:43;10.57;;;9.77;;
16994;SDS011;8614;48.522;9.206;2024-03-23T06:37:09;10.50;;;9.57;;
16994;SDS011;8614;48.522;9.206;2024-03-23T06:39:36;9.37;;;8.73;;
16994;SDS011;8614;48.522;9.206;2024-03-23T06:42:03;9.90;;;8.57;;
16994;SDS011;8614;48.522;9.206;2024-03-23T06:44:31;9.20;;;8.60;;
16994;SDS011;8614;48.522;9.206;2024-03-23T06:47:01;8.53;;;7.93;;
16994;SDS011;8614;48.522;9.206;2024-03-23T06:49:27;8.80;;;8.20;;
16994;SDS011;8614;48.522;9.206;2024-03-23T06:51:54;8.33;;;7.83;;
16994;SDS011;8614;48.522;9.206;2024-03-23T06:54:20;7.70;;;7.30;;
16994;SDS011;8614;48.522;9.206;2024-03-23T06:56:47;8.40;;;7.90;;
16994;SDS011;8614;48.522;9.206;2024-03-23T06:59:14;8.50;;;8.00;;
16994;SDS011;8614;48.522;9.206;2024-03-23T07:01:41;9.23;;;8.67;;
16994;SDS011;8614;48.522;9.206;2024-03-23T07:04:07;9.50;;;8.93;;
16994;SDS011;8614;48.522;9.206;2024-03-23T07:06:34;7.47;;;6.97;;
16994;SDS011;8614;48.522;9.206;2024-03-23T07:09:07;7.50;;;7.10;;
16994;SDS011;8614;48.522;9.206;2024-03-23T07:11:33;8.73;;;8.23;;
16994;SDS011;8614;48.522;9.206;2024-03-23T07:13:59;9.60;;;9.10;;
16994;SDS011;8614;48.522;9.206;2024-03-23T07:16:27;6.60;;;6.30;;
16994;SDS011;8614;48.522;9.206;2024-03-23T07:19:12;7.30;;;6.80;;
16994;SDS011;8614;48.522;9.206;2024-03-23T07:21:41;7.50;;;7.10;;
16994;SDS011;8614;48.522;9.206;2024-03-23T07:24:16;7.50;;;7.10;;
16994;SDS011;8614;48.522;9.206;2024-03-23T07:26:42;7.60;;;7.10;;
16994;SDS011;8614;48.522;9.206;2024-03-23T07:29:09;8.00;;;7.50;;
16994;SDS011;8614;48.522;9.206;2024-03-23T07:31:37;7.53;;;7.13;;
16994;SDS011;8614;48.522;9.206;2024-03-23T07:34:03;7.40;;;7.00;;
16994;SDS011;8614;48.522;9.206;2024-03-23T07:36:30;8.10;;;7.60;;
16994;SDS011;8614;48.522;9.206;2024-03-23T07:38:56;7.47;;;7.07;;
16994;SDS011;8614;48.522;9.206;2024-03-23T07:41:23;7.20;;;6.80;;
16994;SDS011;8614;48.522;9.206;2024-03-23T07:43:49;7.50;;;7.10;;
16994;SDS011;8614;48.522;9.206;2024-03-23T07:46:16;7.77;;;7.20;;
16994;SDS011;8614;48.522;9.206;2024-03-23T07:48:43;7.60;;;7.20;;
16994;SDS011;8614;48.522;9.206;2024-03-23T07:51:11;8.00;;;7.50;;
16994;SDS011;8614;48.522;9.206;2024-03-23T07:53:42;7.70;;;7.30;;
16994;SDS011;8614;48.522;9.206;2024-03-23T07:56:14;7.90;;;7.40;;
16994;SDS011;8614;48.522;9.206;2024-03-23T07:58:41;8.27;;;7.77;;
16994;SDS011;8614;48.522;9.206;2024-03-23T08:01:09;7.80;;;7.40;;
16994;SDS011;8614;48.522;9.206;2024-03-23T08:03:37;7.70;;;7.20;;
16994;SDS011;8614;48.522;9.206;2024-03-23T08:06:07;5.47;;;5.17;;
16994;SDS011;8614;48.522;9.206;2024-03-23T08:08:34;6.10;;;5.70;;
16994;SDS011;8614;48.522;9.206;2024-03-23T08:11:01;8.07;;;7.57;;
16994;SDS011;8614;48.522;9.206;2024-03-23T08:13:28;7.40;;;7.00;;
16994;SDS011;8614;48.522;9.206;2024-03-23T08:16:05;7.03;;;6.63;;
16994;SDS011;8614;48.522;9.206;2024-03-23T08:18:31;7.40;;;7.00;;
16994;SDS011;8614;48.522;9.206;2024-03-23T08:20:59;7.40;;;7.00;;
16994;SDS011;8614;48.522;9.206;2024-03-23T08:23:28;7.07;;;6.67;;
16994;SDS011;8614;48.522;9.206;2024-03-23T08:25:57;7.60;;;7.10;;
16994;SDS011;8614;48.522;9.206;2024-03-23T08:28:23;8.13;;;7.50;;
16994;SDS011;8614;48.522;9.206;2024-03-23T08:30:50;9.10;;;8.60;;
16994;SDS011;8614;48.522;9.206;2024-03-23T08:33:16;7.50;;;7.10;;
16994;SDS011;8614;48.522;9.206;2024-03-23T08:35:43;8.00;;;7.50;;
16994;SDS011;8614;48.522;9.206;2024-03-23T08:38:18;8.10;;;7.60;;
16994;SDS011;8614;48.522;9.206;2024-03-23T08:40:46;7.73;;;7.30;;
16994;SDS011;8614;48.522;9.206;2024-03-23T08:43:12;8.17;;;7.67;;
16994;SDS011;8614;48.522;9.206;2024-03-23T08:45:39;8.67;;;8.03;;
16994;SDS011;8614;48.522;9.206;2024-03-23T08:48:05;8.03;;;7.53;;
16994;SDS011;8614;48.522;9.206;2024-03-23T08:50:32;8.30;;;7.70;;
16994;SDS011;8614;48.522;9.206;2024-03-23T08:52:58;9.23;;;8.40;;
16994;SDS011;8614;48.522;9.206;2024-03-23T08:55:26;8.70;;;8.10;;
16994;SDS011;8614;48.522;9.206;2024-03-23T08:57:53;9.27;;;8.30;;
16994;SDS011;8614;48.522;9.206;2024-03-23T09:00:19;9.23;;;8.60;;
16994;SDS011;8614;48.522;9.206;2024-03-23T09:02:47;9.23;;;8.47;;
16994;SDS011;8614;48.522;9.206;2024-03-23T09:05:14;8.80;;;8.10;;
16994;SDS011;8614;48.522;9.206;2024-03-23T09:07:40;9.17;;;8.40;;
16994;SDS011;8614;48.522;9.206;2024-03-23T09:10:07;9.10;;;8.30;;
16994;SDS011;8614;48.522;9.206;2024-03-23T09:12:33;8.97;;;8.20;;
16994;SDS011;8614;48.522;9.206;2024-03-23T09:15:01;9.20;;;8.30;;
16994;SDS011;8614;48.522;9.206;2024-03-23T09:17:27;9.47;;;8.53;;
16994;SDS011;8614;48.522;9.206;2024-03-23T09:19:54;8.87;;;8.17;;
16994;SDS011;8614;48.522;9.206;2024-03-23T09:22:19;8.70;;;8.00;;
16994;SDS011;8614;48.522;9.206;2024-03-23T09:24:46;9.20;;;8.40;;
16994;SDS011;8614;48.522;9.206;2024-03-23T09:27:12;9.00;;;8.20;;
16994;SDS011;8614;48.522;9.206;2024-03-23T09:29:39;8.83;;;8.13;;
16994;SDS011;8614;48.522;9.206;2024-03-23T09:32:06;10.50;;;8.43;;
16994;SDS011;8614;48.522;9.206;2024-03-23T09:34:33;9.77;;;8.77;;
16994;SDS011;8614;48.522;9.206;2024-03-23T09:36:59;9.30;;;8.50;;
16994;SDS011;8614;48.522;9.206;2024-03-23T09:39:26;10.00;;;9.00;;
16994;SDS011;8614;48.522;9.206;2024-03-23T09:41:56;10.63;;;9.03;;
16994;SDS011;8614;48.522;9.206;2024-03-23T09:44:23;11.80;;;9.13;;
16994;SDS011;8614;48.522;9.206;2024-03-23T09:46:51;9.23;;;8.43;;
16994;SDS011;8614;48.522;9.206;2024-03-23T09:49:19;11.57;;;9.37;;
16994;SDS011;8614;48.522;9.206;2024-03-23T09:51:45;10.07;;;9.03;;
16994;SDS011;8614;48.522;9.206;2024-03-23T09:54:12;9.97;;;9.10;;
16994;SDS011;8614;48.522;9.206;2024-03-23T09:56:38;9.20;;;8.40;;
16994;SDS011;8614;48.522;9.206;2024-03-23T09:59:05;9.40;;;8.70;;
16994;SDS011;8614;48.522;9.206;2024-03-23T10:01:31;9.30;;;8.40;;
16994;SDS011;8614;48.522;9.206;2024-03-23T10:03:58;9.87;;;8.17;;
16994;SDS011;8614;48.522;9.206;2024-03-23T10:06:25;8.93;;;5.93;;
16994;SDS011;8614;48.522;9.206;2024-03-23T10:08:52;9.07;;;8.23;;
16994;SDS011;8614;48.522;9.206;2024-03-23T10:11:19;7.23;;;6.33;;
16994;SDS011;8614;48.522;9.206;2024-03-23T10:13:46;6.50;;;5.80;;
16994;SDS011;8614;48.522;9.206;2024-03-23T10:16:20;7.20;;;6.03;;
16994;SDS011;8614;48.522;9.206;2024-03-23T10:18:48;6.40;;;5.73;;
16994;SDS011;8614;48.522;9.206;2024-03-23T10:21:14;5.47;;;4.97;;
16994;SDS011;8614;48.522;9.206;2024-03-23T10:23:43;8.27;;;5.47;;
16994;SDS011;8614;48.522;9.206;2024-03-23T10:26:13;7.87;;;7.23;;
16994;SDS011;8614;48.522;9.206;2024-03-23T10:28:56;6.70;;;5.37;;
16994;SDS011;8614;48.522;9.206;2024-03-23T10:31:24;9.30;;;8.00;;
16994;SDS011;8614;48.522;9.206;2024-03-23T10:33:51;9.90;;;9.20;;
16994;SDS011;8614;48.522;9.206;2024-03-23T10:36:19;9.63;;;8.83;;
16994;SDS011;8614;48.522;9.206;2024-03-23T10:38:49;9.03;;;8.13;;
16994;SDS011;8614;48.522;9.206;2024-03-23T10:41:16;9.77;;;8.97;;
16994;SDS011;8614;48.522;9.206;2024-03-23T10:43:45;10.87;;;8.53;;
16994;SDS011;8614;48.522;9.206;2024-03-23T10:46:11;9.83;;;8.90;;
16994;SDS011;8614;48.522;9.206;2024-03-23T10:48:39;10.73;;;8.87;;
16994;SDS011;8614;48.522;9.206;2024-03-23T10:51:06;10.23;;;9.17;;
16994;SDS011;8614;48.522;9.206;2024-03-23T10:53:33;9.30;;;8.50;;
16994;SDS011;8614;48.522;9.206;2024-03-23T10:56:03;8.80;;;8.10;;
16994;SDS011;8614;48.522;9.206;2024-03-23T10:58:31;11.70;;;8.47;;
16994;SDS011;8614;48.522;9.206;2024-03-23T11:01:03;9.27;;;8.53;;
16994;SDS011;8614;48.522;9.206;2024-03-23T11:03:34;10.43;;;9.33;;
16994;SDS011;8614;48.522;9.206;2024-03-23T11:06:02;9.20;;;7.90;;
16994;SDS011;8614;48.522;9.206;2024-03-23T11:08:30;8.90;;;8.10;;
16994;SDS011;8614;48.522;9.206;2024-03-23T11:11:18;9.20;;;8.30;;
16994;SDS011;8614;48.522;9.206;2024-03-23T11:13:47;9.60;;;8.20;;
16994;SDS011;8614;48.522;9.206;2024-03-23T11:16:14;8.40;;;7.60;;
16994;SDS011;8614;48.522;9.206;2024-03-23T11:18:42;8.17;;;7.47;;
16994;SDS011;8614;48.522;9.206;2024-03-23T11:21:09;8.93;;;8.30;;
16994;SDS011;8614;48.522;9.206;2024-03-23T11:23:36;9.30;;;8.50;;
16994;SDS011;8614;48.522;9.206;2024-03-23T11:26:02;8.70;;;7.90;;
16994;SDS011;8614;48.522;9.206;2024-03-23T11:28:34;9.20;;;8.30;;
16994;SDS011;8614;48.522;9.206;2024-03-23T11:31:00;10.10;;;9.20;;
16994;SDS011;8614;48.522;9.206;2024-03-23T11:33:27;8.60;;;7.97;;
16994;SDS011;8614;48.522;9.206;2024-03-23T11:35:54;8.43;;;7.83;;
16994;SDS011;8614;48.522;9.206;2024-03-23T11:38:21;8.73;;;7.93;;
16994;SDS011;8614;48.522;9.206;2024-03-23T11:40:47;8.40;;;7.70;;
16994;SDS011;8614;48.522;9.206;2024-03-23T11:43:16;8.77;;;7.97;;
16994;SDS011;8614;48.522;9.206;2024-03-23T11:45:44;9.17;;;8.33;;
16994;SDS011;8614;48.522;9.206;2024-03-23T11:48:12;8.03;;;7.40;;
16994;SDS011;8614;48.522;9.206;2024-03-23T11:50:40;7.77;;;7.00;;
16994;SDS011;8614;48.522;9.206;2024-03-23T11:53:15;8.33;;;7.40;;
16994;SDS011;8614;48.522;9.206;2024-03-23T11:55:42;9.53;;;8.23;;
16994;SDS011;8614;48.522;9.206;2024-03-23T11:58:10;8.47;;;7.73;;
16994;SDS011;8614;48.522;9.206;2024-03-23T12:00:36;9.00;;;7.90;;
16994;SDS011;8614;48.522;9.206;2024-03-23T12:03:05;8.23;;;7.53;;
16994;SDS011;8614;48.522;9.206;2024-03-23T12:05:31;8.00;;;7.40;;
16994;SDS011;8614;48.522;9.206;2024-03-23T12:08:21;7.90;;;7.30;;
16994;SDS011;8614;48.522;9.206;2024-03-23T12:10:50;8.77;;;7.40;;
16994;SDS011;8614;48.522;9.206;2024-03-23T12:13:17;9.10;;;8.20;;
16994;SDS011;8614;48.522;9.206;2024-03-23T12:15:45;8.57;;;7.87;;
16994;SDS011;8614;48.522;9.206;2024-03-23T12:18:13;9.37;;;8.33;;
16994;SDS011;8614;48.522;9.206;2024-03-23T12:20:40;9.57;;;8.67;;
16994;SDS011;8614;48.522;9.206;2024-03-23T12:23:06;9.00;;;8.30;;
16994;SDS011;8614;48.522;9.206;2024-03-23T12:25:35;9.13;;;8.43;;
16994;SDS011;8614;48.522;9.206;2024-03-23T12:28:01;9.47;;;8.67;;
16994;SDS011;8614;48.522;9.206;2024-03-23T12:30:28;9.17;;;8.10;;
16994;SDS011;8614;48.522;9.206;2024-03-23T12:32:54;9.47;;;8.03;;
16994;SDS011;8614;48.522;9.206;2024-03-23T12:35:23;8.70;;;8.00;;
16994;SDS011;8614;48.522;9.206;2024-03-23T12:37:49;9.87;;;8.90;;
16994;SDS011;8614;48.522;9.206;2024-03-23T12:40:15;8.77;;;8.07;;
16994;SDS011;8614;48.522;9.206;2024-03-23T12:42:41;8.60;;;7.90;;
16994;SDS011;8614;48.522;9.206;2024-03-23T12:45:08;8.63;;;7.90;;
16994;SDS011;8614;48.522;9.206;2024-03-23T12:47:37;8.50;;;7.90;;
16994;SDS011;8614;48.522;9.206;2024-03-23T12:50:04;8.80;;;8.10;;
16994;SDS011;8614;48.522;9.206;2024-03-23T12:52:32;8.70;;;7.80;;
16994;SDS011;8614;48.522;9.206;2024-03-23T12:54:59;8.33;;;7.60;;
16994;SDS011;8614;48.522;9.206;2024-03-23T12:57:25;9.13;;;8.43;;
16994;SDS011;8614;48.522;9.206;2024-03-23T12:59:52;8.77;;;7.90;;
16994;SDS011;8614;48.522;9.206;2024-03-23T13:02:19;8.30;;;7.50;;
16994;SDS011;8614;48.522;9.206;2024-03-23T13:04:46;8.17;;;7.57;;
16994;SDS011;8614;48.522;9.206;2024-03-23T13:07:14;7.67;;;7.10;;
16994;SDS011;8614;48.522;9.206;2024-03-23T13:09:42;8.67;;;7.77;;
16994;SDS011;8614;48.522;9.206;2024-03-23T13:12:09;8.67;;;7.93;;
16994;SDS011;8614;48.522;9.206;2024-03-23T13:14:37;9.07;;;8.47;;
16994;SDS011;8614;48.522;9.206;2024-03-23T13:17:03;8.20;;;7.60;;
16994;SDS011;8614;48.522;9.206;2024-03-23T13:19:30;8.30;;;7.60;;
16994;SDS011;8614;48.522;9.206;2024-03-23T13:21:56;8.67;;;7.83;;
16994;SDS011;8614;48.522;9.206;2024-03-23T13:24:23;9.87;;;8.20;;
16994;SDS011;8614;48.522;9.206;2024-03-23T13:26:52;8.57;;;7.87;;
16994;SDS011;8614;48.522;9.206;2024-03-23T13:29:19;8.50;;;7.90;;
16994;SDS011;8614;48.522;9.206;2024-03-23T13:31:52;9.37;;;8.77;;
16994;SDS011;8614;48.522;9.206;2024-03-23T13:34:27;8.50;;;7.90;;
16994;SDS011;8614;48.522;9.206;2024-03-23T13:36:54;10.63;;;8.27;;
16994;SDS011;8614;48.522;9.206;2024-03-23T13:39:24;8.30;;;7.70;;
16994;SDS011;8614;48.522;9.206;2024-03-23T13:41:52;8.40;;;7.70;;
16994;SDS011;8614;48.522;9.206;2024-03-23T13:44:19;8.47;;;7.87;;
16994;SDS011;8614;48.522;9.206;2024-03-23T13:46:45;8.43;;;7.70;;
16994;SDS011;8614;48.522;9.206;2024-03-23T13:49:18;8.07;;;7.47;;
16994;SDS011;8614;48.522;9.206;2024-03-23T13:51:49;7.60;;;7.00;;
16994;SDS011;8614;48.522;9.206;2024-03-23T13:54:16;8.23;;;7.63;;
16994;SDS011;8614;48.522;9.206;2024-03-23T13:56:44;7.90;;;7.20;;
16994;SDS011;8614;48.522;9.206;2024-03-23T13:59:12;7.30;;;6.80;;
16994;SDS011;8614;48.522;9.206;2024-03-23T14:01:40;8.20;;;7.60;;
16994;SDS011;8614;48.522;9.206;2024-03-23T14:04:07;8.00;;;7.40;;
16994;SDS011;8614;48.522;9.206;2024-03-23T14:06:33;8.50;;;7.73;;
16994;SDS011;8614;48.522;9.206;2024-03-23T14:09:00;11.57;;;9.13;;
16994;SDS011;8614;48.522;9.206;2024-03-23T14:11:26;9.60;;;7.67;;
16994;SDS011;8614;48.522;9.206;2024-03-23T14:13:53;8.20;;;7.40;;
16994;SDS011;8614;48.522;9.206;2024-03-23T14:16:21;7.40;;;6.70;;
16994;SDS011;8614;48.522;9.206;2024-03-23T14:18:48;7.90;;;7.30;;
16994;SDS011;8614;48.522;9.206;2024-03-23T14:21:13;7.60;;;7.00;;
16994;SDS011;8614;48.522;9.206;2024-03-23T14:23:40;7.63;;;7.03;;
16994;SDS011;8614;48.522;9.206;2024-03-23T14:26:07;7.87;;;7.27;;
16994;SDS011;8614;48.522;9.206;2024-03-23T14:28:33;7.97;;;7.17;;
16994;SDS011;8614;48.522;9.206;2024-03-23T14:31:00;7.73;;;7.13;;
16994;SDS011;8614;48.522;9.206;2024-03-23T14:33:27;7.50;;;7.00;;
16994;SDS011;8614;48.522;9.206;2024-03-23T14:35:54;6.70;;;6.20;;
16994;SDS011;8614;48.522;9.206;2024-03-23T14:38:20;7.20;;;6.60;;
16994;SDS011;8614;48.522;9.206;2024-03-23T14:40:48;6.90;;;6.43;;
16994;SDS011;8614;48.522;9.206;2024-03-23T14:43:14;7.30;;;6.80;;
16994;SDS011;8614;48.522;9.206;2024-03-23T14:45:48;7.00;;;6.60;;
16994;SDS011;8614;48.522;9.206;2024-03-23T14:48:33;7.40;;;6.80;;
16994;SDS011;8614;48.522;9.206;2024-03-23T14:51:00;7.33;;;6.70;;
16994;SDS011;8614;48.522;9.206;2024-03-23T14:53:26;7.27;;;6.73;;
16994;SDS011;8614;48.522;9.206;2024-03-23T14:55:54;7.67;;;6.90;;
16994;SDS011;8614;48.522;9.206;2024-03-23T14:58:20;7.00;;;6.50;;
16994;SDS011;8614;48.522;9.206;2024-03-23T15:00:48;7.10;;;6.57;;
16994;SDS011;8614;48.522;9.206;2024-03-23T15:03:13;7.77;;;6.90;;
16994;SDS011;8614;48.522;9.206;2024-03-23T15:05:42;7.60;;;7.00;;
16994;SDS011;8614;48.522;9.206;2024-03-23T15:08:16;7.90;;;7.30;;
16994;SDS011;8614;48.522;9.206;2024-03-23T15:10:43;6.83;;;6.43;;
16994;SDS011;8614;48.522;9.206;2024-03-23T15:13:09;7.83;;;7.33;;
16994;SDS011;8614;48.522;9.206;2024-03-23T15:15:37;7.00;;;6.60;;
16994;SDS011;8614;48.522;9.206;2024-03-23T15:18:04;7.23;;;6.73;;
16994;SDS011;8614;48.522;9.206;2024-03-23T15:20:31;7.30;;;6.80;;
16994;SDS011;8614;48.522;9.206;2024-03-23T15:23:02;7.23;;;6.83;;
16994;SDS011;8614;48.522;9.206;2024-03-23T15:25:29;7.77;;;7.17;;
16994;SDS011;8614;48.522;9.206;2024-03-23T15:27:55;7.73;;;7.13;;
16994;SDS011;8614;48.522;9.206;2024-03-23T15:30:22;7.70;;;7.10;;
16994;SDS011;8614;48.522;9.206;2024-03-23T15:32:49;8.50;;;8.00;;
16994;SDS011;8614;48.522;9.206;2024-03-23T15:35:16;11.73;;;8.33;;
16994;SDS011;8614;48.522;9.206;2024-03-23T15:37:42;8.33;;;7.73;;
16994;SDS011;8614;48.522;9.206;2024-03-23T15:40:11;8.30;;;7.70;;
16994;SDS011;8614;48.522;9.206;2024-03-23T15:42:38;8.57;;;7.97;;
16994;SDS011;8614;48.522;9.206;2024-03-23T15:45:06;8.63;;;8.07;;
16994;SDS011;8614;48.522;9.206;2024-03-23T15:47:32;8.40;;;7.80;;
16994;SDS011;8614;48.522;9.206;2024-03-23T15:49:59;8.68;;;7.97;;
16994;SDS011;8614;48.522;9.206;2024-03-23T15:52:25;8.23;;;7.63;;